Ginys del Meteocat

Dades de l'estació automàtica Muntanyola

?
?
Resum diari 23:00 TU
Dades diàries de l'estació meteorològica
Temperatura mitjana 6.6 °C
Temperatura màxima 11.2 °C 12:44 TU
Temperatura mínima 2.4 °C 3:47 TU
Humitat relativa mitjana 73%
Precipitació acumulada 0.0 mm
Ratxa màxima del vent (10 m) 25.6 km/h - 229º 13:56 TU
Pressió atmosfèrica mitjana 1021.9 hPa
Irradiació solar global 10.4 MJ/m2

El tram horari està expressat en Temps Universal (TU). Cal sumar una hora en horari d'hivern i dues en horari d'estiu per passar a l'hora oficial.

Muntanyola

Metadades estació meteorol´gica
Municipi Muntanyola
Comarca Osona
Altitud 816 m
Data alta 12.01.1996
Estat actual Operativa
Dades de període
Període
TU
TM
°C
TX
°C
TN
°C
HRM
%
PPT
mm
VVM (10 m)
km/h
DVM (10 m)
graus
VVX (10 m)
km/h
PM
hPa
RS
W/m2
00:00 - 00:30 4.6 4.7 4.4 100 0.0 2.2 217 3.6 1024.4 0
00:30 - 01:00 4.9 5.0 4.8 100 0.0 2.2 218 3.6 1024.1 0
01:00 - 01:30 4.7 5.1 4.2 100 0.0 1.4 105 4.0 1024.0 0
01:30 - 02:00 4.4 4.6 4.2 100 0.0 0.4 183 2.9 1024.0 0
02:00 - 02:30 4.6 5.3 4.2 97 0.0 3.2 209 6.1 1023.6 0
02:30 - 03:00 4.9 5.5 4.3 84 0.0 1.4 217 5.4 1023.2 0
03:00 - 03:30 3.7 4.4 3.1 96 0.0 2.5 15 4.3 1023.2 0
03:30 - 04:00 2.6 3.0 2.4 99 0.0 3.2 238 6.1 1023.4 0
04:00 - 04:30 3.4 3.9 2.8 91 0.0 1.8 197 4.7 1023.0 0
04:30 - 05:00 4.5 5.0 3.8 78 0.0 2.5 224 3.6 1022.6 0
05:00 - 05:30 5.1 5.5 4.9 77 0.0 2.5 235 3.6 1022.1 0
05:30 - 06:00 5.2 5.5 4.9 75 0.0 0.4 273 2.2 1022.0 0
06:00 - 06:30 4.6 5.3 3.2 75 0.0 0.7 49 4.3 1022.3 0
06:30 - 07:00 2.8 3.3 2.5 89 0.0 1.1 166 4.7 1023.3 0
07:00 - 07:30 4.2 4.6 3.2 77 0.0 1.4 223 3.2 1022.9 12
07:30 - 08:00 4.6 4.7 3.8 74 0.0 1.8 223 4.3 1022.9 42
08:00 - 08:30 3.9 4.5 3.4 81 0.0 1.4 298 4.7 1023.3 109
08:30 - 09:00 4.0 5.4 3.2 84 0.0 4.0 244 8.6 1023.3 186
09:00 - 09:30 6.2 7.0 5.4 73 0.0 10.4 251 17.3 1022.6 265
09:30 - 10:00 7.4 7.8 7.0 67 0.0 11.5 249 17.3 1022.3 332
10:00 - 10:30 8.3 9.0 7.8 64 0.0 11.2 263 17.6 1022.0 392
10:30 - 11:00 9.1 9.4 8.9 63 0.0 8.6 268 14.0 1021.7 439
11:00 - 11:30 9.4 9.9 9.1 63 0.0 7.6 269 14.0 1021.4 471
11:30 - 12:00 9.8 10.3 9.1 60 0.0 9.0 267 15.5 1021.0 495
12:00 - 12:30 10.3 10.6 10.0 56 0.0 9.7 254 16.6 1020.4 499
12:30 - 13:00 10.6 11.2 10.2 53 0.0 10.1 249 19.4 1019.8 491
13:00 - 13:30 10.6 11.0 10.3 53 0.0 11.5 248 22.0 1019.6 468
13:30 - 14:00 10.2 10.6 9.9 52 0.0 13.3 245 25.6 1019.7 387
14:00 - 14:30 10.3 10.7 10.1 51 0.0 12.6 245 21.6 1019.5 365
14:30 - 15:00 10.4 10.7 10.2 54 0.0 11.2 250 20.5 1019.5 286
15:00 - 15:30 10.4 10.9 10.2 55 0.0 10.8 252 22.0 1019.5 249
15:30 - 16:00 10.0 10.2 9.8 56 0.0 11.5 241 19.1 1019.6 162
16:00 - 16:30 9.4 9.8 8.9 58 0.0 11.5 233 18.7 1019.7 67
16:30 - 17:00 8.6 8.9 8.4 60 0.0 12.2 223 20.5 1020.0 15
17:00 - 17:30 7.9 8.3 7.6 63 0.0 8.3 217 15.8 1020.5 3
17:30 - 18:00 7.5 7.6 7.4 62 0.0 7.2 217 15.8 1020.8 3
18:00 - 18:30 7.1 7.5 6.7 66 0.0 4.7 195 11.5 1021.2 3
18:30 - 19:00 6.6 6.8 6.2 69 0.0 3.2 148 7.6 1021.6 2
19:00 - 19:30 6.3 6.5 6.0 71 0.0 2.9 113 5.0 1021.9 2
19:30 - 20:00 6.7 7.0 6.6 68 0.0 0.7 155 4.0 1022.1 2
20:00 - 20:30 6.4 6.6 6.2 71 0.0 2.2 180 6.1 1022.4 2
20:30 - 21:00 6.4 6.7 6.1 70 0.0 1.8 183 5.0 1022.4 2
21:00 - 21:30 6.1 6.4 5.8 72 0.0 0.7 234 3.6 1022.5 2
21:30 - 22:00 5.7 6.0 5.2 74 0.0 1.4 91 6.1 1022.8 3
22:00 - 22:30 4.7 5.1 4.3 81 0.0 2.2 56 5.8 1023.0 3
22:30 - 23:00 4.5 4.8 4.2 83 0.0 1.4 131 4.7 1023.0 3
23:00 - 23:30 5.3 5.6 4.9 82 0.0 1.4 131 4.7 1022.7 3

Les dades en taronja només han passat un control de qualitat automàtic. Resta pendent la seva validació definitiva.